Time;durP1;ratioP1;P1;durP2;ratioP2;P2;SDS_P1;SDS_P2;PMS_P1;PMS_P2;Temp;Humidity;BMP_temperature;BMP_pressure;BME280_temperature;BME280_humidity;BME280_pressure;Samples;Min_cycle;Max_cycle;Signal;HPM_P1;HPM_P2
2024/01/22 00:01:38;;;;;;;9.73;4.28;;;7.10;99.90;;;;;;5075873;28;20366;-83
2024/01/22 00:04:04;;;;;;;9.98;4.63;;;7.10;99.90;;;;;;5109150;28;20071;-83
2024/01/22 00:06:30;;;;;;;11.73;4.90;;;7.20;99.90;;;;;;5092500;28;20076;-83
2024/01/22 00:08:56;;;;;;;9.32;4.57;;;7.20;99.90;;;;;;5109245;28;20119;-82
2024/01/22 00:11:21;;;;;;;8.80;4.43;;;7.20;99.90;;;;;;5109046;28;20040;-83
2024/01/22 00:13:47;;;;;;;9.38;4.63;;;7.20;99.90;;;;;;5109016;28;20078;-82
2024/01/22 00:16:15;;;;;;;10.88;4.72;;;7.20;99.90;;;;;;5092025;28;20063;-82
2024/01/22 00:18:41;;;;;;;10.18;4.88;;;7.20;99.90;;;;;;5109209;28;20469;-82
2024/01/22 00:21:06;;;;;;;13.55;4.75;;;7.20;99.90;;;;;;5075436;28;20079;-82
2024/01/22 00:23:32;;;;;;;8.73;3.78;;;7.20;99.90;;;;;;5108737;28;20040;-82
2024/01/22 00:25:58;;;;;;;9.85;4.18;;;7.30;99.90;;;;;;5108826;28;20065;-83
2024/01/22 00:28:23;;;;;;;10.57;4.32;;;7.30;99.90;;;;;;5075341;28;20043;-82
2024/01/22 00:30:49;;;;;;;11.02;4.80;;;7.30;99.90;;;;;;5058139;28;20078;-81
2024/01/22 00:33:15;;;;;;;11.38;4.82;;;7.30;99.90;;;;;;5058310;28;20039;-82
2024/01/22 00:35:41;;;;;;;10.23;5.10;;;7.30;99.90;;;;;;5077330;28;20036;-82
2024/01/22 00:38:06;;;;;;;11.50;4.93;;;7.40;99.90;;;;;;5108660;28;20036;-82
2024/01/22 00:40:32;;;;;;;9.63;3.53;;;7.30;99.90;;;;;;5108283;28;20135;-83
2024/01/22 00:42:58;;;;;;;10.48;4.47;;;7.40;99.90;;;;;;5108659;28;20040;-82
2024/01/22 00:45:23;;;;;;;10.57;5.05;;;7.40;99.90;;;;;;5074997;28;20040;-82
2024/01/22 00:47:49;;;;;;;9.00;4.70;;;7.30;99.90;;;;;;5108609;28;20093;-82
2024/01/22 00:50:15;;;;;;;10.85;4.90;;;7.30;99.90;;;;;;5091241;28;20056;-83
2024/01/22 00:52:42;;;;;;;9.43;4.00;;;7.40;99.90;;;;;;5108752;28;20537;-81
2024/01/22 00:55:08;;;;;;;9.90;4.88;;;7.40;99.90;;;;;;5091472;28;20044;-82
2024/01/22 00:57:33;;;;;;;7.63;3.53;;;7.40;99.90;;;;;;5074985;28;20476;-83
2024/01/22 00:59:59;;;;;;;10.25;4.40;;;7.50;99.90;;;;;;5074768;28;20123;-82
2024/01/22 01:02:25;;;;;;;9.25;4.38;;;7.50;99.90;;;;;;5074525;28;20048;-81
2024/01/22 01:04:52;;;;;;;7.03;3.72;;;7.50;99.90;;;;;;5074642;28;20074;-82
2024/01/22 01:07:18;;;;;;;8.07;4.18;;;7.60;99.90;;;;;;5074330;28;20044;-83
2024/01/22 01:09:43;;;;;;;7.20;3.83;;;7.60;99.90;;;;;;5108334;28;20044;-83
2024/01/22 01:12:09;;;;;;;8.57;4.00;;;7.60;99.90;;;;;;5074790;28;20082;-82
2024/01/22 01:14:35;;;;;;;8.55;4.20;;;7.60;99.90;;;;;;5057731;28;20036;-83
2024/01/22 01:17:01;;;;;;;8.32;4.00;;;7.60;99.90;;;;;;5108340;28;20040;-83
2024/01/22 01:19:26;;;;;;;7.10;4.20;;;7.70;99.90;;;;;;5108380;28;20050;-83
2024/01/22 01:21:52;;;;;;;8.48;3.90;;;7.70;99.90;;;;;;5091160;28;20460;-82
2024/01/22 01:24:18;;;;;;;9.10;4.22;;;7.70;99.90;;;;;;5074443;28;20412;-83
2024/01/22 01:26:44;;;;;;;9.30;4.47;;;7.80;99.90;;;;;;5091073;28;20040;-82
2024/01/22 01:29:10;;;;;;;9.20;4.30;;;7.80;99.90;;;;;;5074697;28;20569;-82
2024/01/22 01:31:36;;;;;;;7.10;3.25;;;7.70;99.90;;;;;;5076776;28;20085;-82
2024/01/22 01:34:01;;;;;;;7.60;3.83;;;7.80;99.90;;;;;;5108057;28;20036;-82
2024/01/22 01:36:29;;;;;;;7.60;4.07;;;7.80;99.90;;;;;;5108626;28;20043;-82
2024/01/22 01:38:55;;;;;;;8.63;3.83;;;7.80;99.90;;;;;;5108184;28;20045;-82
2024/01/22 01:41:20;;;;;;;7.82;3.83;;;7.90;99.90;;;;;;5091277;28;20040;-82
2024/01/22 01:43:46;;;;;;;8.00;3.80;;;7.90;99.90;;;;;;5108128;28;20071;-82
2024/01/22 01:46:12;;;;;;;10.63;3.72;;;8.00;99.90;;;;;;5108348;28;20040;-81
2024/01/22 01:48:39;;;;;;;6.90;3.58;;;8.00;99.90;;;;;;5074810;28;20044;-83
2024/01/22 01:51:05;;;;;;;7.15;3.70;;;8.10;99.90;;;;;;5108130;28;20385;-82
2024/01/22 01:53:32;;;;;;;7.35;3.22;;;8.10;99.90;;;;;;5110856;28;20032;-82
2024/01/22 01:55:59;;;;;;;7.45;3.78;;;8.10;99.90;;;;;;5112356;28;20040;-83
2024/01/22 01:58:25;;;;;;;8.07;4.05;;;8.20;99.90;;;;;;5073786;28;20039;-79
2024/01/22 02:00:54;;;;;;;8.95;3.70;;;8.20;99.90;;;;;;5120297;28;20020;-77
2024/01/22 02:03:20;;;;;;;7.72;3.88;;;8.20;99.90;;;;;;5118312;28;20057;-83
2024/01/22 02:05:46;;;;;;;9.57;3.53;;;8.20;99.90;;;;;;5077891;28;20491;-83
2024/01/22 02:08:12;;;;;;;6.53;3.63;;;8.20;99.90;;;;;;5094817;28;20062;-83
2024/01/22 02:10:37;;;;;;;10.05;3.78;;;8.20;99.90;;;;;;5078228;28;20473;-83
2024/01/22 02:13:06;;;;;;;8.32;4.30;;;8.20;99.90;;;;;;5111740;28;20040;-83
2024/01/22 02:15:33;;;;;;;9.15;4.38;;;8.20;99.90;;;;;;5111385;28;20036;-83
2024/01/22 02:18:05;;;;;;;9.40;4.10;;;8.20;99.90;;;;;;5077791;28;20071;-83
2024/01/22 02:20:30;;;;;;;9.77;4.40;;;8.20;99.90;;;;;;5111557;28;20059;-83
2024/01/22 02:23:06;;;;;;;7.32;4.38;;;8.20;99.90;;;;;;5111615;28;20369;-83
2024/01/22 02:25:32;;;;;;;7.68;3.42;;;8.10;99.90;;;;;;5077874;28;20484;-83
2024/01/22 02:27:57;;;;;;;7.80;4.43;;;8.10;99.90;;;;;;5111064;28;20055;-83
2024/01/22 02:30:23;;;;;;;8.60;4.18;;;8.20;99.90;;;;;;5112310;28;20046;-73
2024/01/22 02:32:49;;;;;;;8.68;4.07;;;8.20;99.90;;;;;;5096836;28;20042;-72
2024/01/22 02:35:15;;;;;;;10.38;5.00;;;8.20;99.90;;;;;;5111131;28;20118;-72
2024/01/22 02:37:41;;;;;;;7.65;4.40;;;8.20;99.90;;;;;;5111245;28;20085;-73
2024/01/22 02:40:07;;;;;;;9.90;4.60;;;8.20;99.90;;;;;;5111186;28;20097;-72
2024/01/22 02:42:33;;;;;;;9.88;4.63;;;8.20;99.90;;;;;;5110884;28;20044;-72
2024/01/22 02:45:00;;;;;;;9.30;4.90;;;8.20;99.90;;;;;;5110783;28;20048;-72
2024/01/22 02:47:25;;;;;;;8.05;4.13;;;8.20;99.90;;;;;;5110909;28;20086;-72
2024/01/22 02:49:52;;;;;;;8.50;4.53;;;8.20;99.90;;;;;;5110342;28;20075;-72
2024/01/22 02:52:18;;;;;;;9.00;4.28;;;8.20;99.90;;;;;;5060214;28;20044;-72
2024/01/22 02:54:44;;;;;;;8.15;4.60;;;8.20;99.90;;;;;;5076951;28;20388;-73
2024/01/22 02:57:12;;;;;;;8.23;4.32;;;8.20;99.90;;;;;;5110574;28;20039;-72
2024/01/22 02:59:40;;;;;;;9.05;4.43;;;8.20;99.90;;;;;;5076611;28;20048;-73
2024/01/22 03:02:07;;;;;;;6.72;3.38;;;8.30;99.90;;;;;;5093523;28;20040;-73
2024/01/22 03:04:33;;;;;;;8.75;4.45;;;8.30;99.90;;;;;;5110153;28;20109;-72
2024/01/22 03:06:58;;;;;;;8.20;4.28;;;8.30;99.90;;;;;;5110227;28;20040;-73
2024/01/22 03:09:24;;;;;;;9.05;4.28;;;8.30;99.90;;;;;;5076308;28;20040;-73
2024/01/22 03:11:50;;;;;;;9.85;3.90;;;8.30;99.90;;;;;;5076182;28;20101;-72
2024/01/22 03:14:16;;;;;;;7.40;3.58;;;8.40;99.90;;;;;;5110219;28;20037;-72
2024/01/22 03:16:42;;;;;;;8.98;3.58;;;8.40;99.90;;;;;;5110421;28;20480;-73
2024/01/22 03:19:08;;;;;;;8.38;4.18;;;8.40;99.90;;;;;;5076372;28;20040;-72
2024/01/22 03:21:33;;;;;;;9.57;4.20;;;8.40;99.90;;;;;;5093118;28;20032;-72
2024/01/22 03:24:00;;;;;;;7.88;3.65;;;8.40;99.90;;;;;;5070962;28;20057;-73
2024/01/22 03:26:25;;;;;;;8.07;3.42;;;8.40;99.90;;;;;;5113244;28;20031;-73
2024/01/22 03:28:51;;;;;;;8.32;3.83;;;8.40;99.90;;;;;;5079658;28;20092;-72
2024/01/22 03:31:25;;;;;;;8.15;3.67;;;8.50;99.90;;;;;;5096231;28;20122;-73
2024/01/22 03:33:52;;;;;;;7.07;3.50;;;8.50;99.90;;;;;;5096384;28;20039;-73
2024/01/22 03:36:18;;;;;;;8.18;3.60;;;8.50;99.90;;;;;;5113069;28;20047;-73
2024/01/22 03:38:45;;;;;;;8.02;3.80;;;8.50;99.90;;;;;;5079391;28;20043;-73
2024/01/22 03:41:11;;;;;;;8.05;4.18;;;8.40;99.90;;;;;;5113640;28;20092;-73
2024/01/22 03:43:36;;;;;;;7.57;3.97;;;8.50;99.90;;;;;;5096388;28;20039;-73
2024/01/22 03:46:02;;;;;;;7.40;3.60;;;8.40;99.90;;;;;;5095934;28;20043;-73
2024/01/22 03:48:28;;;;;;;6.95;3.40;;;8.50;99.90;;;;;;5113186;28;20062;-73
2024/01/22 03:50:54;;;;;;;7.40;3.90;;;8.50;99.90;;;;;;5112663;28;20173;-73
2024/01/22 03:53:20;;;;;;;6.75;3.50;;;8.50;99.90;;;;;;5112789;28;20044;-73
2024/01/22 03:55:46;;;;;;;7.03;3.60;;;8.50;99.90;;;;;;5095726;28;20043;-71
2024/01/22 03:58:12;;;;;;;6.65;3.78;;;8.50;99.90;;;;;;5112876;28;20039;-72
2024/01/22 04:00:38;;;;;;;9.05;4.20;;;8.50;99.90;;;;;;5095915;28;20039;-72
2024/01/22 04:03:04;;;;;;;8.63;3.90;;;8.50;99.90;;;;;;5112531;28;20043;-72
2024/01/22 04:05:30;;;;;;;8.70;4.20;;;8.50;99.90;;;;;;5095577;28;20043;-71
2024/01/22 04:07:56;;;;;;;7.97;3.83;;;8.40;99.90;;;;;;5095627;28;20052;-71
2024/01/22 04:10:23;;;;;;;8.80;4.10;;;8.50;99.90;;;;;;5095378;28;20043;-71
2024/01/22 04:12:48;;;;;;;8.63;4.30;;;8.50;99.90;;;;;;5112450;28;20118;-72
2024/01/22 04:15:14;;;;;;;7.38;3.83;;;8.40;99.90;;;;;;5111784;28;20503;-72
2024/01/22 04:17:40;;;;;;;6.78;3.78;;;8.50;99.90;;;;;;5112604;28;20396;-73
2024/01/22 04:20:06;;;;;;;6.82;4.20;;;8.50;99.90;;;;;;5109299;28;20118;-73
2024/01/22 04:22:32;;;;;;;6.43;3.40;;;8.40;99.90;;;;;;5112595;28;20047;-73
2024/01/22 04:24:58;;;;;;;7.15;3.80;;;8.40;99.90;;;;;;5112234;28;20058;-73
2024/01/22 04:27:24;;;;;;;6.88;3.42;;;8.50;99.90;;;;;;5095188;28;20047;-73
2024/01/22 04:29:50;;;;;;;9.48;4.22;;;8.50;99.90;;;;;;5112078;28;20043;-73
2024/01/22 04:32:15;;;;;;;7.82;4.45;;;8.60;99.90;;;;;;5112042;28;20404;-73
2024/01/22 04:34:42;;;;;;;8.13;4.45;;;8.60;99.90;;;;;;5112190;28;20039;-73
2024/01/22 04:37:08;;;;;;;8.30;4.55;;;8.60;99.90;;;;;;5111859;28;20044;-73
2024/01/22 04:39:34;;;;;;;6.90;4.05;;;8.70;99.90;;;;;;5095094;28;20039;-73
2024/01/22 04:42:00;;;;;;;7.57;4.35;;;8.60;99.90;;;;;;5112195;28;20043;-73
2024/01/22 04:44:29;;;;;;;7.60;4.10;;;8.60;99.90;;;;;;5094996;28;20126;-73
2024/01/22 04:46:55;;;;;;;6.20;3.63;;;8.60;99.90;;;;;;5111914;28;20039;-73
2024/01/22 04:49:21;;;;;;;7.03;4.32;;;8.70;99.90;;;;;;5112170;28;20484;-82
2024/01/22 04:51:47;;;;;;;8.52;4.22;;;8.60;99.90;;;;;;5111535;28;20052;-82
2024/01/22 04:54:12;;;;;;;7.88;3.75;;;8.70;99.90;;;;;;5095304;28;20457;-81
2024/01/22 04:56:43;;;;;;;8.40;4.15;;;8.70;99.90;;;;;;5111764;28;20036;-82
2024/01/22 04:59:09;;;;;;;6.10;3.22;;;8.80;99.90;;;;;;5094845;28;20039;-82
2024/01/22 05:01:35;;;;;;;5.93;3.30;;;8.80;99.90;;;;;;5078100;28;20483;-82
2024/01/22 05:04:01;;;;;;;7.57;4.35;;;8.80;99.90;;;;;;5111992;28;20096;-82
2024/01/22 05:06:27;;;;;;;6.70;3.33;;;8.80;99.90;;;;;;5111845;28;20047;-82
2024/01/22 05:08:53;;;;;;;6.90;3.97;;;8.90;99.90;;;;;;5094706;28;20453;-81
2024/01/22 05:11:19;;;;;;;6.38;2.78;;;9.00;99.90;;;;;;5094732;28;20472;-81
2024/01/22 05:13:52;;;;;;;6.03;3.70;;;9.00;99.90;;;;;;5111687;28;20036;-82
2024/01/22 05:16:19;;;;;;;5.20;3.00;;;9.00;99.90;;;;;;5105626;28;20059;-81
2024/01/22 05:18:45;;;;;;;6.93;3.67;;;9.00;99.90;;;;;;5058199;28;20040;-82
2024/01/22 05:21:11;;;;;;;5.75;2.90;;;9.10;99.90;;;;;;5091264;28;20052;-81
2024/01/22 05:23:41;;;;;;;6.25;3.20;;;9.10;99.90;;;;;;5091429;28;20062;-82
2024/01/22 05:26:07;;;;;;;5.47;3.38;;;9.20;99.90;;;;;;5075181;28;20043;-82
2024/01/22 05:28:33;;;;;;;6.30;3.30;;;9.20;99.90;;;;;;5078519;28;20130;-81
2024/01/22 05:31:00;;;;;;;6.40;3.30;;;9.20;99.90;;;;;;5095189;28;20040;-81
2024/01/22 05:33:26;;;;;;;7.10;3.28;;;9.30;99.90;;;;;;5095483;28;20048;-81
2024/01/22 05:35:52;;;;;;;5.90;3.30;;;9.30;99.90;;;;;;5095420;28;20040;-81
2024/01/22 05:38:18;;;;;;;6.25;2.63;;;9.40;99.90;;;;;;5095267;28;20089;-81
2024/01/22 05:40:44;;;;;;;6.32;3.17;;;9.40;99.90;;;;;;5094765;28;20117;-82
2024/01/22 05:43:10;;;;;;;5.47;3.17;;;9.40;99.90;;;;;;5078375;28;20040;-82
2024/01/22 05:45:36;;;;;;;5.53;2.42;;;9.50;99.90;;;;;;5078272;28;20043;-82
2024/01/22 05:48:02;;;;;;;5.10;2.72;;;9.50;99.90;;;;;;5078049;28;20142;-81
2024/01/22 05:50:27;;;;;;;5.50;2.80;;;9.60;99.90;;;;;;5044687;28;20048;-81
2024/01/22 05:52:53;;;;;;;5.10;2.83;;;9.60;99.90;;;;;;5077879;28;20078;-82
2024/01/22 05:55:19;;;;;;;5.32;2.65;;;9.70;99.90;;;;;;5078051;28;20122;-80
2024/01/22 05:57:45;;;;;;;6.10;2.65;;;9.70;99.90;;;;;;5078109;28;20036;-81
2024/01/22 06:00:13;;;;;;;5.13;2.53;;;9.70;99.90;;;;;;5094970;28;20054;-73
2024/01/22 06:02:42;;;;;;;5.10;2.65;;;9.80;99.90;;;;;;5094432;28;20090;-73
2024/01/22 06:05:12;;;;;;;5.78;2.50;;;9.80;99.90;;;;;;5094572;28;20043;-72
2024/01/22 06:07:38;;;;;;;5.32;2.85;;;9.80;99.90;;;;;;5077887;28;20399;-72
2024/01/22 06:10:06;;;;;;;5.57;2.78;;;9.80;99.90;;;;;;5077353;28;20040;-72
2024/01/22 06:12:34;;;;;;;5.82;2.83;;;9.80;99.90;;;;;;5097155;28;20036;-73
2024/01/22 06:15:00;;;;;;;5.32;2.78;;;9.80;99.90;;;;;;5077788;28;20105;-73
2024/01/22 06:17:30;;;;;;;6.20;2.90;;;9.80;99.90;;;;;;5111223;28;20122;-72
2024/01/22 06:19:58;;;;;;;7.43;3.05;;;9.80;99.90;;;;;;5111216;28;20043;-72
2024/01/22 06:22:25;;;;;;;6.30;3.08;;;9.80;99.90;;;;;;5077484;28;20051;-72
2024/01/22 06:24:50;;;;;;;5.32;2.70;;;9.80;99.90;;;;;;5111341;28;20044;-73
2024/01/22 06:27:16;;;;;;;5.63;3.08;;;9.90;99.90;;;;;;5111125;28;20043;-73
2024/01/22 06:29:42;;;;;;;4.95;2.60;;;9.90;99.90;;;;;;5110911;28;20055;-73
2024/01/22 06:32:08;;;;;;;5.40;2.53;;;9.90;99.90;;;;;;5060463;28;20473;-73
2024/01/22 06:34:35;;;;;;;6.72;2.88;;;9.90;99.90;;;;;;5077184;28;20040;-73
2024/01/22 06:37:02;;;;;;;5.95;2.63;;;9.90;99.90;;;;;;5060387;28;20047;-73
2024/01/22 06:39:29;;;;;;;5.35;2.60;;;10.00;99.90;;;;;;5110241;28;20047;-73
2024/01/22 06:41:54;;;;;;;5.82;2.85;;;10.00;99.90;;;;;;5076695;28;20032;-73
2024/01/22 06:44:20;;;;;;;6.05;2.60;;;10.00;99.90;;;;;;5110806;28;20082;-73
2024/01/22 06:46:46;;;;;;;5.05;2.60;;;10.00;99.90;;;;;;5110730;28;20143;-73
2024/01/22 06:49:11;;;;;;;5.85;2.63;;;10.00;99.90;;;;;;5110614;28;20044;-73
2024/01/22 06:51:37;;;;;;;5.88;2.63;;;10.00;99.90;;;;;;5093502;28;20048;-73
2024/01/22 06:54:03;;;;;;;6.93;3.10;;;10.10;99.90;;;;;;5076791;28;20044;-73
2024/01/22 06:56:29;;;;;;;6.45;2.58;;;10.10;99.90;;;;;;5059976;28;20088;-73
2024/01/22 06:58:56;;;;;;;5.40;2.67;;;10.10;99.90;;;;;;5110403;28;20075;-73
2024/01/22 07:01:22;;;;;;;6.03;2.45;;;10.20;99.90;;;;;;5076644;28;20127;-73
2024/01/22 07:03:47;;;;;;;7.25;3.47;;;10.10;99.90;;;;;;5093519;28;20409;-73
2024/01/22 07:06:13;;;;;;;6.38;2.55;;;10.10;99.90;;;;;;5110623;28;20452;-73
2024/01/22 07:08:39;;;;;;;8.85;3.20;;;10.10;99.90;;;;;;5095857;28;20032;-74
2024/01/22 07:11:05;;;;;;;9.15;3.13;;;10.20;99.90;;;;;;5059759;28;20077;-73
2024/01/22 07:13:32;;;;;;;8.30;2.92;;;10.20;99.90;;;;;;5110266;28;20043;-73
2024/01/22 07:15:59;;;;;;;9.73;2.85;;;10.20;99.90;;;;;;5093603;28;20123;-73
2024/01/22 07:18:24;;;;;;;7.95;2.70;;;10.20;99.90;;;;;;5110092;28;20036;-73
2024/01/22 07:20:50;;;;;;;10.48;2.63;;;10.20;99.90;;;;;;5076145;28;20039;-73
2024/01/22 07:23:16;;;;;;;13.27;3.08;;;10.20;99.90;;;;;;5076089;28;20488;-73
2024/01/22 07:25:42;;;;;;;10.05;2.55;;;10.20;99.90;;;;;;5076115;28;20044;-73
2024/01/22 07:28:08;;;;;;;12.07;2.85;;;10.30;99.90;;;;;;5076412;28;20036;-73
2024/01/22 07:30:36;;;;;;;10.55;2.35;;;10.30;99.90;;;;;;5092903;28;20066;-73
2024/01/22 07:33:03;;;;;;;12.73;2.85;;;10.50;99.90;;;;;;5060145;28;20135;-72
2024/01/22 07:35:29;;;;;;;14.98;2.67;;;10.40;99.90;;;;;;5076446;28;20452;-73
2024/01/22 07:37:55;;;;;;;13.38;2.72;;;10.60;99.90;;;;;;5075949;28;20118;-72
2024/01/22 07:40:21;;;;;;;14.90;3.05;;;10.60;99.90;;;;;;5092565;28;20072;-73
2024/01/22 07:42:48;;;;;;;9.65;2.50;;;10.60;99.90;;;;;;5092152;28;20048;-73
2024/01/22 07:45:14;;;;;;;15.07;3.10;;;10.60;99.90;;;;;;5092476;28;20048;-73
2024/01/22 07:47:40;;;;;;;15.23;3.13;;;10.60;99.90;;;;;;5092645;28;20072;-73
2024/01/22 07:50:09;;;;;;;14.52;3.20;;;10.60;99.90;;;;;;5074590;28;20614;-73
2024/01/22 07:52:36;;;;;;;17.48;3.38;;;10.70;99.90;;;;;;5075528;28;20040;-73
2024/01/22 07:55:02;;;;;;;15.15;3.38;;;10.70;99.90;;;;;;5109374;28;20042;-73
2024/01/22 07:57:29;;;;;;;16.33;3.38;;;10.70;99.90;;;;;;5093020;28;20028;-72
2024/01/22 07:59:55;;;;;;;16.58;3.38;;;10.80;99.90;;;;;;5092525;28;20396;-73
2024/01/22 08:02:21;;;;;;;13.85;3.20;;;10.80;99.90;;;;;;5075689;28;20093;-73
2024/01/22 08:04:50;;;;;;;15.65;3.20;;;10.80;99.90;;;;;;5083775;28;20031;-74
2024/01/22 08:07:19;;;;;;;17.05;3.55;;;10.80;99.90;;;;;;5095489;28;20036;-73
2024/01/22 08:09:46;;;;;;;15.88;3.30;;;10.80;99.90;;;;;;5078674;28;20039;-74
2024/01/22 08:12:12;;;;;;;12.40;2.53;;;10.90;99.90;;;;;;5112438;28;20054;-74
2024/01/22 08:14:38;;;;;;;13.73;3.08;;;10.80;99.90;;;;;;5078649;28;20468;-73
2024/01/22 08:17:04;;;;;;;12.93;2.83;;;10.90;99.90;;;;;;5112206;28;20092;-73
2024/01/22 08:19:30;;;;;;;14.10;3.15;;;10.90;99.90;;;;;;5112304;28;20073;-79
2024/01/22 08:21:56;;;;;;;13.32;2.75;;;10.90;99.90;;;;;;5095483;28;20031;-79
2024/01/22 08:24:23;;;;;;;16.67;3.50;;;10.90;99.90;;;;;;5112239;28;20042;-80
2024/01/22 08:26:49;;;;;;;12.63;2.72;;;10.90;99.90;;;;;;5078693;28;20035;-80
2024/01/22 08:29:15;;;;;;;16.25;3.53;;;10.90;99.90;;;;;;5112215;28;20046;-79
2024/01/22 08:31:42;;;;;;;15.60;3.40;;;10.80;99.90;;;;;;5095197;28;20480;-80
2024/01/22 08:34:08;;;;;;;13.57;3.22;;;10.80;99.90;;;;;;5095179;28;20032;-80
2024/01/22 08:36:34;;;;;;;14.65;3.50;;;10.70;99.90;;;;;;5095293;28;20449;-79
2024/01/22 08:38:59;;;;;;;17.08;3.50;;;10.70;99.90;;;;;;5112232;28;20092;-79
2024/01/22 08:41:27;;;;;;;11.95;3.25;;;10.70;99.90;;;;;;5112173;28;20062;-79
2024/01/22 08:43:59;;;;;;;14.50;3.28;;;10.70;99.90;;;;;;5095105;28;20043;-79
2024/01/22 08:46:26;;;;;;;11.90;3.28;;;10.70;99.90;;;;;;5112252;28;20488;-80
2024/01/22 08:48:52;;;;;;;11.93;3.08;;;10.70;99.90;;;;;;5112253;28;20039;-80
2024/01/22 08:51:18;;;;;;;12.32;2.95;;;10.70;99.90;;;;;;5111657;28;20064;-79
2024/01/22 08:53:43;;;;;;;11.30;2.80;;;10.80;99.90;;;;;;5094988;28;20051;-79
2024/01/22 08:56:09;;;;;;;14.18;3.15;;;10.70;99.90;;;;;;5111970;28;20444;-80
2024/01/22 08:58:35;;;;;;;12.25;2.80;;;10.80;99.90;;;;;;5095095;28;20036;-79
2024/01/22 09:01:05;;;;;;;11.00;2.90;;;10.80;99.90;;;;;;5103635;28;20040;-79
2024/01/22 09:03:32;;;;;;;12.88;3.20;;;10.80;99.90;;;;;;5092334;28;20123;-80
2024/01/22 09:05:59;;;;;;;10.35;2.50;;;10.80;99.90;;;;;;5074886;28;20055;-79
2024/01/22 09:08:25;;;;;;;11.05;3.05;;;10.80;99.90;;;;;;5108363;28;20105;-80
2024/01/22 09:10:51;;;;;;;14.52;2.97;;;10.70;99.90;;;;;;5074429;28;20040;-80
2024/01/22 09:13:20;;;;;;;13.02;3.15;;;10.70;99.90;;;;;;5058817;28;20040;-79
2024/01/22 09:15:46;;;;;;;12.20;2.60;;;10.70;99.90;;;;;;5108195;28;20036;-79
2024/01/22 09:18:12;;;;;;;12.38;2.50;;;10.70;99.90;;;;;;5052218;28;20044;-79
2024/01/22 09:20:37;;;;;;;15.35;2.92;;;10.70;99.90;;;;;;5070518;28;20041;-78
2024/01/22 09:23:03;;;;;;;14.75;3.03;;;10.60;99.90;;;;;;5054744;28;20080;-80
2024/01/22 09:25:29;;;;;;;13.20;3.30;;;10.60;99.90;;;;;;5071274;28;20040;-80
2024/01/22 09:27:55;;;;;;;13.60;3.15;;;10.70;99.90;;;;;;5071065;28;20090;-80
2024/01/22 09:30:20;;;;;;;15.27;3.60;;;10.60;99.90;;;;;;5070905;28;20044;-80
2024/01/22 09:32:46;;;;;;;17.40;3.80;;;10.60;99.90;;;;;;5054301;28;20075;-81
2024/01/22 09:35:14;;;;;;;19.65;4.07;;;10.60;99.90;;;;;;5071297;28;20481;-80
2024/01/22 09:37:40;;;;;;;19.80;4.13;;;10.60;99.90;;;;;;5038303;28;20028;-80
2024/01/22 09:40:11;;;;;;;19.30;4.18;;;10.60;99.90;;;;;;5070864;28;20051;-81
2024/01/22 09:42:39;;;;;;;23.80;4.30;;;10.50;99.90;;;;;;5071125;28;20126;-80
2024/01/22 09:45:08;;;;;;;20.98;4.53;;;10.40;99.90;;;;;;5054485;28;20084;-80
2024/01/22 09:47:35;;;;;;;26.67;5.18;;;10.50;99.90;;;;;;5054063;28;20105;-81
2024/01/22 09:50:02;;;;;;;20.92;5.15;;;10.50;99.90;;;;;;5070712;28;20044;-80
2024/01/22 09:52:32;;;;;;;29.45;6.05;;;10.50;99.90;;;;;;5070934;28;20040;-80
2024/01/22 09:54:58;;;;;;;30.35;5.70;;;10.50;99.90;;;;;;5070810;28;20036;-80
2024/01/22 09:57:27;;;;;;;32.13;5.78;;;10.50;99.90;;;;;;5061659;28;20032;-81
2024/01/22 09:59:53;;;;;;;32.75;6.43;;;10.50;99.90;;;;;;5074411;28;20055;-80
2024/01/22 10:02:19;;;;;;;33.00;6.15;;;10.50;99.90;;;;;;5074434;28;20503;-80
2024/01/22 10:04:45;;;;;;;30.35;6.63;;;10.50;99.90;;;;;;5091156;28;20104;-81
2024/01/22 10:07:15;;;;;;;34.22;7.18;;;10.50;99.90;;;;;;5091545;28;20431;-81
2024/01/22 10:09:42;;;;;;;42.08;7.45;;;10.50;99.90;;;;;;5091710;28;20122;-81
2024/01/22 10:12:08;;;;;;;38.85;7.30;;;10.50;99.90;;;;;;5092920;28;20444;-81
2024/01/22 10:14:35;;;;;;;40.17;8.20;;;10.50;99.90;;;;;;5080439;28;20078;-79
2024/01/22 10:17:21;;;;;;;41.17;7.63;;;10.50;99.90;;;;;;5114583;28;20070;-80
2024/01/22 10:19:49;;;;;;;38.28;7.03;;;10.50;99.90;;;;;;5116638;28;20036;-79
2024/01/22 10:22:22;;;;;;;41.35;8.18;;;10.50;99.90;;;;;;5110929;28;20051;-81
2024/01/22 10:24:59;;;;;;;40.13;7.85;;;10.50;99.90;;;;;;5103347;28;20489;-80
2024/01/22 10:27:25;;;;;;;42.55;8.25;;;10.50;99.90;;;;;;5094555;28;20083;-81
2024/01/22 10:29:51;;;;;;;38.80;8.07;;;10.40;99.90;;;;;;5096514;28;20047;-82
2024/01/22 10:32:24;;;;;;;37.78;7.68;;;10.40;99.90;;;;;;5105415;28;20088;-81
2024/01/22 10:34:53;;;;;;;36.58;8.43;;;10.40;99.90;;;;;;5115995;28;20032;-81
2024/01/22 10:37:19;;;;;;;38.72;7.90;;;10.40;99.90;;;;;;5082850;28;20036;-82
2024/01/22 10:39:48;;;;;;;39.58;8.15;;;10.40;99.90;;;;;;5116237;28;20040;-81
2024/01/22 10:42:15;;;;;;;38.83;8.00;;;10.40;99.90;;;;;;5097550;28;20523;-82
2024/01/22 10:44:43;;;;;;;43.60;8.68;;;10.40;99.90;;;;;;5114110;28;20066;-82
2024/01/22 10:47:11;;;;;;;34.33;6.85;;;10.40;99.90;;;;;;5114663;28;20044;-82
2024/01/22 10:49:37;;;;;;;35.55;7.38;;;10.40;99.90;;;;;;5097675;28;20040;-82
2024/01/22 10:52:04;;;;;;;40.83;7.93;;;10.40;99.90;;;;;;5115258;28;20115;-82
2024/01/22 10:54:31;;;;;;;39.67;7.57;;;10.30;99.90;;;;;;5115223;28;20040;-81
2024/01/22 10:57:24;;;;;;;39.25;8.27;;;10.40;99.90;;;;;;5116321;28;20036;-86
2024/01/22 10:59:51;;;;;;;33.35;7.35;;;10.30;99.90;;;;;;5117051;28;20103;-82
2024/01/22 11:02:22;;;;;;;35.88;7.47;;;10.30;99.90;;;;;;5107056;28;20048;-81
2024/01/22 11:04:52;;;;;;;42.47;8.25;;;10.30;99.90;;;;;;5107662;28;20040;-82
2024/01/22 11:07:29;;;;;;;35.50;7.47;;;10.30;99.90;;;;;;5107897;28;20584;-77
2024/01/22 11:09:58;;;;;;;40.15;7.90;;;10.30;99.90;;;;;;5090102;28;20044;-82
2024/01/22 11:12:28;;;;;;;43.15;8.05;;;10.30;99.90;;;;;;5083957;28;20039;-82
2024/01/22 11:14:54;;;;;;;31.88;7.40;;;10.30;99.90;;;;;;5099095;28;20438;-82
2024/01/22 11:17:20;;;;;;;41.33;8.32;;;10.30;99.90;;;;;;5099324;28;20036;-82
2024/01/22 11:19:48;;;;;;;38.67;7.85;;;10.30;99.90;;;;;;5100365;28;20136;-82
2024/01/22 11:22:21;;;;;;;36.58;7.32;;;10.20;99.90;;;;;;5080169;28;20040;-82
2024/01/22 11:25:13;;;;;;;39.15;7.53;;;10.20;99.90;;;;;;5077973;28;20040;-82
2024/01/22 11:27:44;;;;;;;35.65;7.20;;;10.30;99.90;;;;;;5094656;28;20039;-81
2024/01/22 11:30:22;;;;;;;33.13;6.53;;;10.30;99.90;;;;;;5094345;28;20047;-82
2024/01/22 11:32:49;;;;;;;32.35;6.72;;;10.40;99.90;;;;;;5093603;28;20073;-82
2024/01/22 11:35:38;;;;;;;29.50;6.68;;;10.40;99.90;;;;;;5098236;28;20032;-82
2024/01/22 11:38:04;;;;;;;31.10;6.10;;;10.40;99.90;;;;;;5098972;28;20103;-82
2024/01/22 11:40:55;;;;;;;33.25;6.75;;;10.40;99.90;;;;;;5082000;28;20043;-83
2024/01/22 11:43:24;;;;;;;35.38;6.78;;;10.40;99.90;;;;;;5089670;28;20060;-82
2024/01/22 11:46:02;;;;;;;38.30;7.57;;;10.40;99.90;;;;;;5094714;28;20063;-82
2024/01/22 11:48:28;;;;;;;33.50;7.28;;;10.40;99.90;;;;;;5078517;28;20044;-83
2024/01/22 11:50:58;;;;;;;32.78;6.88;;;10.40;99.90;;;;;;5092989;28;20101;-82
2024/01/22 11:53:25;;;;;;;35.00;7.43;;;10.40;99.90;;;;;;5093081;28;20048;-82
2024/01/22 11:56:05;;;;;;;35.95;6.97;;;10.40;99.90;;;;;;5059600;28;20392;-83
2024/01/22 11:58:32;;;;;;;33.03;6.90;;;10.40;99.90;;;;;;5092569;28;20040;-82
2024/01/22 12:01:06;;;;;;;30.38;6.40;;;10.40;99.90;;;;;;5092490;28;20144;-82
2024/01/22 12:03:32;;;;;;;27.95;6.55;;;10.40;99.90;;;;;;5075649;28;20181;-81
2024/01/22 12:06:03;;;;;;;32.95;6.82;;;10.40;99.90;;;;;;5075583;28;20467;-83
2024/01/22 12:08:29;;;;;;;29.33;6.30;;;10.30;99.90;;;;;;5075448;28;20040;-83
2024/01/22 12:11:15;;;;;;;28.77;6.32;;;10.30;99.90;;;;;;5092295;28;20058;-82
2024/01/22 12:13:42;;;;;;;36.00;6.57;;;10.40;99.90;;;;;;5075166;28;20117;-82
2024/01/22 12:16:19;;;;;;;28.67;5.75;;;10.30;99.90;;;;;;5092464;28;20566;-82
2024/01/22 12:18:45;;;;;;;33.45;6.22;;;10.30;99.90;;;;;;5092094;28;20101;-82
2024/01/22 12:21:12;;;;;;;32.60;6.38;;;10.30;99.90;;;;;;5058982;28;20047;-82
2024/01/22 12:23:38;;;;;;;33.85;6.63;;;10.20;99.90;;;;;;5075107;28;20097;-79
2024/01/22 12:26:32;;;;;;;29.48;5.80;;;10.20;99.90;;;;;;5075284;28;20048;-76
2024/01/22 12:28:58;;;;;;;27.63;5.90;;;10.20;99.90;;;;;;5091127;28;20492;-78
2024/01/22 12:31:24;;;;;;;30.30;6.15;;;10.20;99.90;;;;;;5091651;28;20047;-77
2024/01/22 12:33:50;;;;;;;32.17;6.63;;;10.20;99.90;;;;;;5091916;28;20047;-76
2024/01/22 12:36:16;;;;;;;29.38;6.10;;;10.20;99.90;;;;;;5091544;28;20043;-77
2024/01/22 12:38:50;;;;;;;30.15;6.22;;;10.20;99.90;;;;;;5075000;28;20074;-75
2024/01/22 12:41:16;;;;;;;25.38;5.57;;;10.30;99.90;;;;;;5091665;28;20048;-77
2024/01/22 12:43:42;;;;;;;24.83;5.13;;;10.30;99.90;;;;;;5091985;28;20043;-75
2024/01/22 12:46:14;;;;;;;25.85;5.47;;;10.30;99.90;;;;;;5071567;28;20043;-77
2024/01/22 12:48:46;;;;;;;27.83;5.20;;;10.40;99.90;;;;;;5074720;28;20040;-76